Time;durP1;ratioP1;P1;durP2;ratioP2;P2;SDS_P1;SDS_P2;PMS_P1;PMS_P2;Temp;Humidity;BMP_temperature;BMP_pressure;BME280_temperature;BME280_humidity;BME280_pressure;Samples;Min_cycle;Max_cycle;Signal;HPM_P1;HPM_P2
2023/04/09 00:00:35;;;;;;;27.05;18.63;;;;;;;9.62;82.73;102530.69;5012088;28;20088;-74
2023/04/09 00:03:01;;;;;;;23.05;17.55;;;;;;;9.60;82.40;102524.50;5012321;28;20053;-74
2023/04/09 00:05:27;;;;;;;24.15;17.45;;;;;;;9.61;83.14;102529.78;5012142;28;20037;-74
2023/04/09 00:07:52;;;;;;;19.65;15.40;;;;;;;9.61;83.42;102523.63;5028946;28;20098;-75
2023/04/09 00:10:18;;;;;;;22.88;16.52;;;;;;;9.61;83.92;102526.25;5012111;28;20030;-74
2023/04/09 00:12:44;;;;;;;21.52;16.67;;;;;;;9.58;83.32;102528.88;5012169;28;20527;-74
2023/04/09 00:15:09;;;;;;;23.00;15.52;;;;;;;9.59;83.22;102522.72;5013436;28;20065;-74
2023/04/09 00:17:35;;;;;;;25.80;17.25;;;;;;;9.60;83.66;102521.84;5013409;28;20096;-74
2023/04/09 00:20:01;;;;;;;23.17;17.00;;;;;;;9.57;83.27;102520.06;5013547;28;20033;-74
2023/04/09 00:22:26;;;;;;;24.58;17.27;;;;;;;9.55;83.06;102516.53;5013261;28;20386;-75
2023/04/09 00:24:52;;;;;;;24.20;17.13;;;;;;;9.55;83.52;102520.94;5028624;28;20036;-74
2023/04/09 00:27:17;;;;;;;23.33;17.27;;;;;;;9.56;83.42;102518.28;4995824;28;20049;-74
2023/04/09 00:29:43;;;;;;;23.52;17.13;;;;;;;9.55;83.11;102515.66;4995548;28;20095;-75
2023/04/09 00:32:08;;;;;;;23.83;17.20;;;;;;;9.57;83.11;102514.78;5011903;28;20114;-74
2023/04/09 00:34:34;;;;;;;24.98;17.85;;;;;;;9.55;82.75;102503.31;4995313;28;20389;-75
2023/04/09 00:36:59;;;;;;;26.90;17.63;;;;;;;9.61;83.43;102513.91;5011847;28;20045;-75
2023/04/09 00:39:25;;;;;;;27.05;18.67;;;;;;;9.57;83.10;102509.50;5028353;28;20026;-75
2023/04/09 00:42:01;;;;;;;26.70;19.08;;;;;;;9.58;83.45;102510.38;5011559;28;20473;-75
2023/04/09 00:44:26;;;;;;;30.60;18.90;;;;;;;9.59;82.77;102506.84;5008325;28;20485;-75
2023/04/09 00:46:53;;;;;;;24.05;17.73;;;;;;;9.55;83.91;102502.41;5012784;28;20060;-75
2023/04/09 00:49:20;;;;;;;28.38;18.42;;;;;;;9.60;83.85;102511.28;5010664;28;20037;-75
2023/04/09 00:51:47;;;;;;;26.27;18.17;;;;;;;9.58;83.80;102498.03;5020836;28;20032;-75
2023/04/09 00:54:15;;;;;;;25.17;18.88;;;;;;;9.58;84.02;102502.44;5012636;28;20393;-75
2023/04/09 00:56:41;;;;;;;24.00;18.70;;;;;;;9.58;83.94;102508.59;5011287;28;20373;-75
2023/04/09 00:59:07;;;;;;;23.00;17.80;;;;;;;9.59;83.25;102505.06;5013027;28;20058;-76
2023/04/09 01:01:33;;;;;;;28.85;20.02;;;;;;;9.56;83.93;102496.25;5012383;28;20464;-74
2023/04/09 01:03:59;;;;;;;26.08;18.70;;;;;;;9.58;84.54;102499.78;5011313;28;20057;-75
2023/04/09 01:06:36;;;;;;;28.33;19.33;;;;;;;9.57;84.65;102500.66;5011397;28;20128;-74
2023/04/09 01:09:20;;;;;;;28.65;19.33;;;;;;;9.53;84.60;102488.28;5010262;28;20033;-75
2023/04/09 01:12:12;;;;;;;26.48;18.15;;;;;;;9.51;84.57;102495.31;5011998;28;20552;-75
2023/04/09 01:14:43;;;;;;;;;;;;;;;9.58;83.41;102495.38;5028060;28;20033;-74
2023/04/09 01:17:20;;;;;;;26.33;18.55;;;;;;;9.50;84.50;102486.50;5011063;28;19913;-74
2023/04/09 01:19:55;;;;;;;29.35;20.17;;;;;;;9.52;84.78;102492.69;5010822;28;20062;-74
2023/04/09 01:22:35;;;;;;;27.92;20.60;;;;;;;9.50;84.78;102490.91;5040862;28;20065;-74
2023/04/09 01:25:28;;;;;;;30.40;20.17;;;;;;;9.50;84.85;102490.91;4995939;28;20030;-75
2023/04/09 01:28:05;;;;;;;23.08;18.27;;;;;;;9.48;85.33;102489.13;5008615;28;20033;-75
2023/04/09 01:30:31;;;;;;;28.17;19.58;;;;;;;9.47;84.64;102481.19;5011914;28;20370;-75
2023/04/09 01:32:57;;;;;;;29.48;20.55;;;;;;;9.45;84.18;102477.66;4978300;28;20029;-74
2023/04/09 01:35:25;;;;;;;30.27;21.58;;;;;;;9.43;84.73;102477.63;5011972;28;20112;-75
2023/04/09 01:37:53;;;;;;;29.10;20.95;;;;;;;9.47;84.87;102490.00;5010554;28;20389;-74
2023/04/09 01:40:18;;;;;;;29.80;20.58;;;;;;;9.46;85.64;102479.41;5010433;28;20547;-75
2023/04/09 01:42:45;;;;;;;29.60;21.35;;;;;;;9.43;85.27;102480.25;5012021;28;20038;-75
2023/04/09 01:45:13;;;;;;;30.65;22.77;;;;;;;9.41;86.20;102489.94;5010173;28;20045;-75
2023/04/09 01:47:40;;;;;;;29.38;20.67;;;;;;;9.40;85.87;102479.38;4994435;28;20350;-75
2023/04/09 01:50:06;;;;;;;29.30;19.83;;;;;;;9.41;85.55;102481.13;5010726;28;20462;-75
2023/04/09 01:52:33;;;;;;;28.50;20.80;;;;;;;9.42;86.43;102482.88;4994510;28;20025;-75
2023/04/09 01:54:58;;;;;;;28.92;21.67;;;;;;;9.39;86.30;102481.09;4992965;28;20038;-75
2023/04/09 01:57:24;;;;;;;31.08;20.83;;;;;;;9.34;85.56;102471.38;5010644;28;20463;-75
2023/04/09 01:59:49;;;;;;;28.92;20.40;;;;;;;9.39;86.07;102483.75;5026974;28;20049;-75
2023/04/09 02:02:27;;;;;;;25.63;19.38;;;;;;;9.33;85.55;102467.84;5026749;28;20061;-75
2023/04/09 02:04:57;;;;;;;32.28;22.30;;;;;;;9.38;86.42;102481.97;5010474;28;20525;-74
2023/04/09 02:07:34;;;;;;;29.00;19.90;;;;;;;9.37;86.42;102484.59;5011754;28;20444;-74
2023/04/09 02:10:01;;;;;;;29.15;20.48;;;;;;;9.36;86.39;102482.84;5026846;28;20045;-74
2023/04/09 02:12:30;;;;;;;29.67;20.75;;;;;;;9.33;86.78;102478.41;5010454;28;20100;-74
2023/04/09 02:14:57;;;;;;;32.90;21.45;;;;;;;9.34;86.72;102477.53;5026624;28;20038;-75
2023/04/09 02:17:22;;;;;;;33.03;20.95;;;;;;;9.34;86.81;102480.19;4993884;28;20030;-74
2023/04/09 02:19:48;;;;;;;28.45;20.33;;;;;;;9.34;86.38;102479.28;4994127;28;20053;-75
2023/04/09 02:22:15;;;;;;;32.22;21.58;;;;;;;9.32;87.60;102474.00;5010407;28;20034;-74
2023/04/09 02:24:40;;;;;;;37.40;21.90;;;;;;;9.31;87.74;102476.63;5015404;28;20034;-74
2023/04/09 02:27:07;;;;;;;29.60;19.75;;;;;;;9.32;86.99;102473.09;5015643;28;20030;-74
2023/04/09 02:29:33;;;;;;;32.42;23.17;;;;;;;9.32;87.11;102474.00;5014007;28;20065;-74
2023/04/09 02:31:58;;;;;;;34.95;22.10;;;;;;;9.30;86.87;102467.81;5014088;28;20056;-74
2023/04/09 02:34:24;;;;;;;32.08;22.65;;;;;;;9.30;87.57;102467.81;4994157;28;20490;-74
2023/04/09 02:36:49;;;;;;;33.22;22.25;;;;;;;9.25;87.39;102459.84;4994928;28;20048;-75
2023/04/09 02:39:15;;;;;;;33.88;22.92;;;;;;;9.27;87.11;102467.75;5013708;28;20081;-75
2023/04/09 02:41:41;;;;;;;35.15;24.38;;;;;;;9.27;88.29;102465.13;5013259;28;20037;-74
2023/04/09 02:44:06;;;;;;;35.05;23.42;;;;;;;9.26;88.22;102466.88;5013818;28;20122;-74
2023/04/09 02:46:32;;;;;;;37.53;25.10;;;;;;;9.21;87.58;102457.16;5013523;28;20080;-74
2023/04/09 02:48:57;;;;;;;38.65;24.60;;;;;;;9.23;87.34;102458.94;5013607;28;20034;-74
2023/04/09 02:51:23;;;;;;;35.20;24.13;;;;;;;9.22;87.77;102457.19;5030164;28;20050;-74
2023/04/09 02:53:49;;;;;;;36.60;24.33;;;;;;;9.22;88.03;102454.53;5013458;28;20042;-74
2023/04/09 02:56:14;;;;;;;36.15;24.27;;;;;;;9.20;88.82;102453.63;5014874;28;20053;-74
2023/04/09 02:58:40;;;;;;;37.72;25.48;;;;;;;9.17;88.14;102448.31;4997314;28;20073;-74
2023/04/09 03:01:05;;;;;;;36.20;24.83;;;;;;;9.15;88.16;102454.44;4993706;28;20405;-74
2023/04/09 03:03:31;;;;;;;38.05;25.10;;;;;;;9.14;88.53;102458.84;5007263;28;20077;-74
2023/04/09 03:05:56;;;;;;;40.53;26.27;;;;;;;9.13;88.91;102454.44;5014695;28;20041;-74
2023/04/09 03:08:22;;;;;;;38.13;25.17;;;;;;;9.12;89.39;102447.34;5013342;28;20401;-74
2023/04/09 03:10:48;;;;;;;39.13;25.73;;;;;;;9.12;88.96;102451.75;4996911;28;20032;-74
2023/04/09 03:13:13;;;;;;;38.47;24.52;;;;;;;9.12;88.54;102450.00;5002039;28;20042;-74
2023/04/09 03:15:39;;;;;;;41.30;25.98;;;;;;;9.12;88.39;102446.47;5013327;28;20037;-74
2023/04/09 03:18:05;;;;;;;40.53;27.00;;;;;;;9.08;88.32;102435.00;5013229;28;20038;-74
2023/04/09 03:20:30;;;;;;;42.95;27.67;;;;;;;9.10;88.79;102438.56;4993674;28;20066;-74
2023/04/09 03:22:56;;;;;;;41.38;26.67;;;;;;;9.10;89.10;102442.94;4993382;28;20504;-74
2023/04/09 03:25:36;;;;;;;40.65;27.40;;;;;;;9.07;88.73;102441.13;4993422;28;20069;-74
2023/04/09 03:28:10;;;;;;;46.78;27.70;;;;;;;9.03;89.18;102437.59;4993564;28;20046;-74
2023/04/09 03:30:40;;;;;;;45.37;28.20;;;;;;;9.07;88.60;102437.63;5012815;28;20062;-74
2023/04/09 03:33:06;;;;;;;50.63;27.02;;;;;;;9.06;89.21;102438.50;5029129;28;20129;-74
2023/04/09 03:35:37;;;;;;;43.20;27.52;;;;;;;9.05;89.21;102434.97;5012711;28;20133;-74
2023/04/09 03:38:02;;;;;;;44.72;28.38;;;;;;;9.06;89.78;102433.22;5012680;28;20466;-74
2023/04/09 03:40:27;;;;;;;42.78;28.55;;;;;;;9.04;89.65;102436.72;5028990;28;20076;-75
2023/04/09 03:42:53;;;;;;;45.28;28.33;;;;;;;9.04;89.74;102436.72;5011474;28;20045;-74
2023/04/09 03:45:19;;;;;;;45.75;27.92;;;;;;;9.01;88.85;102430.53;5012375;28;20123;-74
2023/04/09 03:47:47;;;;;;;48.78;29.92;;;;;;;9.03;89.87;102426.16;4996356;28;20034;-75
2023/04/09 03:50:13;;;;;;;46.13;28.10;;;;;;;9.01;88.85;102428.75;5028579;28;20087;-75
2023/04/09 03:52:48;;;;;;;44.28;28.35;;;;;;;9.04;89.05;102430.53;4982362;28;20025;-75
2023/04/09 03:55:14;;;;;;;48.03;28.65;;;;;;;9.01;89.08;102423.47;5012188;28;20052;-75
2023/04/09 03:57:40;;;;;;;48.90;28.23;;;;;;;8.99;88.57;102422.56;4995395;28;20112;-75
2023/04/09 04:00:11;;;;;;;45.83;28.38;;;;;;;8.99;87.81;102425.22;5011641;28;20042;-75
2023/04/09 04:02:49;;;;;;;45.22;29.90;;;;;;;8.97;89.43;102421.66;5012407;28;20058;-75
2023/04/09 04:05:18;;;;;;;45.35;29.35;;;;;;;8.96;87.72;102419.03;4996258;28;20030;-75
2023/04/09 04:07:47;;;;;;;46.08;27.00;;;;;;;8.97;89.30;102423.44;5009666;28;20041;-75
2023/04/09 04:10:19;;;;;;;42.00;28.77;;;;;;;8.93;89.30;102419.00;5008387;28;20531;-75
2023/04/09 04:12:46;;;;;;;45.78;29.13;;;;;;;8.88;89.91;102418.94;5012266;28;20052;-75
2023/04/09 04:15:20;;;;;;;44.65;29.10;;;;;;;8.84;89.66;102425.06;5029601;28;20107;-75
2023/04/09 04:17:51;;;;;;;;;;;;;;;8.92;88.50;102436.59;5029876;28;20052;-75
2023/04/09 04:20:35;;;;;;;45.75;26.65;;;;;;;8.82;89.64;102426.78;4997170;28;20385;-75
2023/04/09 04:23:08;;;;;;;45.50;25.88;;;;;;;8.80;88.77;102429.44;5011958;28;20554;-75
2023/04/09 04:25:41;;;;;;;40.50;26.77;;;;;;;8.77;88.91;102433.78;5011580;28;20042;-74
2023/04/09 04:28:09;;;;;;;;;;;;;;;8.84;87.83;102430.34;5029312;28;20129;-75
2023/04/09 04:30:42;;;;;;;41.88;25.67;;;;;;;8.77;88.22;102425.88;5011840;28;20300;-75
2023/04/09 04:33:07;;;;;;;39.67;25.02;;;;;;;8.76;86.97;102432.03;4995220;28;20045;-75
2023/04/09 04:35:47;;;;;;;37.13;24.50;;;;;;;8.76;86.50;102427.63;4996247;28;20038;-75
2023/04/09 04:38:29;;;;;;;38.97;24.98;;;;;;;8.74;87.55;102425.84;5011798;28;20515;-75
2023/04/09 04:40:55;;;;;;;37.45;24.17;;;;;;;8.72;86.97;102431.09;5010684;28;20398;-75
2023/04/09 04:43:22;;;;;;;38.60;24.05;;;;;;;8.66;86.45;102424.88;5013437;28;20114;-75
2023/04/09 04:45:49;;;;;;;38.72;24.58;;;;;;;8.59;86.57;102419.50;5007748;28;20453;-75
2023/04/09 04:48:14;;;;;;;38.65;23.95;;;;;;;8.59;86.96;102421.25;5011368;28;20045;-75
2023/04/09 04:50:40;;;;;;;41.33;23.17;;;;;;;8.54;86.52;102421.22;4995323;28;20152;-75
2023/04/09 04:53:08;;;;;;;38.58;24.58;;;;;;;8.51;86.10;102430.88;4995548;28;20120;-75
2023/04/09 04:55:42;;;;;;;39.47;22.80;;;;;;;8.48;85.69;102434.34;5029365;28;20499;-75
2023/04/09 04:58:12;;;;;;;40.03;24.60;;;;;;;8.46;86.30;102438.72;5028415;28;20042;-75
2023/04/09 05:00:52;;;;;;;36.87;23.87;;;;;;;8.38;85.88;102435.03;5030098;28;20048;-75
2023/04/09 05:03:18;;;;;;;38.63;23.73;;;;;;;8.30;86.36;102432.31;5012578;28;20181;-74
2023/04/09 05:06:01;;;;;;;34.92;22.83;;;;;;;8.33;86.47;102435.00;5011228;28;20337;-75
2023/04/09 05:08:35;;;;;;;36.50;24.77;;;;;;;8.32;86.71;102432.34;5011368;28;20061;-75
2023/04/09 05:11:00;;;;;;;36.42;23.45;;;;;;;8.24;86.31;102432.25;5008063;28;20058;-75
2023/04/09 05:13:33;;;;;;;33.75;21.17;;;;;;;8.21;85.94;102432.22;5007756;28;20117;-75
2023/04/09 05:16:01;;;;;;;34.70;22.80;;;;;;;8.16;86.49;102433.91;5021097;28;20145;-75
2023/04/09 05:18:30;;;;;;;36.45;22.90;;;;;;;8.12;86.38;102432.94;5028290;28;20046;-75
2023/04/09 05:20:56;;;;;;;35.72;23.08;;;;;;;8.04;86.12;102426.69;4988826;28;20033;-75
2023/04/09 05:23:22;;;;;;;34.97;21.65;;;;;;;8.00;86.93;102435.41;4999369;28;20141;-75
2023/04/09 05:25:49;;;;;;;35.28;23.23;;;;;;;7.92;87.19;102437.94;5008671;28;20132;-75
2023/04/09 05:28:29;;;;;;;37.43;22.13;;;;;;;7.86;87.05;102434.31;5010531;28;20034;-75
2023/04/09 05:31:10;;;;;;;36.88;22.38;;;;;;;7.78;86.21;102433.34;4991615;28;20037;-75
2023/04/09 05:33:38;;;;;;;35.80;22.58;;;;;;;7.76;87.22;102443.84;5004289;28;20030;-75
2023/04/09 05:36:16;;;;;;;36.05;23.52;;;;;;;7.71;87.17;102442.88;5023870;28;20054;-75
2023/04/09 05:38:42;;;;;;;38.50;21.08;;;;;;;7.63;87.70;102439.25;5003383;28;20373;-75
2023/04/09 05:41:08;;;;;;;39.45;23.52;;;;;;;7.59;87.83;102440.06;5009497;28;20057;-75
2023/04/09 05:43:41;;;;;;;33.80;21.52;;;;;;;7.54;87.76;102438.25;5010505;28;20038;-75
2023/04/09 05:46:07;;;;;;;38.38;23.92;;;;;;;7.54;88.01;102442.63;5012063;28;20038;-75
2023/04/09 05:48:35;;;;;;;36.80;23.17;;;;;;;7.53;88.51;102443.50;4994167;28;20477;-75
2023/04/09 05:51:01;;;;;;;33.47;21.80;;;;;;;7.52;88.14;102445.25;4994530;28;20054;-75
2023/04/09 05:53:28;;;;;;;36.47;21.77;;;;;;;7.54;88.68;102445.25;4994261;28;20025;-75
2023/04/09 05:55:53;;;;;;;36.08;22.35;;;;;;;7.52;87.95;102441.72;5010650;28;20045;-75
2023/04/09 05:58:23;;;;;;;34.10;23.10;;;;;;;7.49;88.26;102439.94;5010249;28;20068;-75
2023/04/09 06:00:50;;;;;;;36.70;23.42;;;;;;;7.45;88.35;102437.22;4976676;28;20086;-75
2023/04/09 06:03:16;;;;;;;36.90;23.35;;;;;;;7.46;88.54;102450.41;5001728;28;20077;-75
2023/04/09 06:05:44;;;;;;;36.25;22.00;;;;;;;7.45;88.90;102451.28;4977252;28;20050;-75
2023/04/09 06:08:09;;;;;;;40.15;22.98;;;;;;;7.45;88.53;102453.91;5016377;28;20061;-75
2023/04/09 06:10:35;;;;;;;35.15;21.73;;;;;;;7.46;88.29;102450.41;5040148;28;20458;-75
2023/04/09 06:13:00;;;;;;;38.45;22.23;;;;;;;7.49;88.74;102453.13;5026727;28;20026;-75
2023/04/09 06:15:26;;;;;;;36.85;22.80;;;;;;;7.52;88.57;102452.28;4993766;28;20037;-75
2023/04/09 06:17:53;;;;;;;35.20;22.65;;;;;;;7.54;88.69;102454.06;5018946;28;20045;-75
2023/04/09 06:20:18;;;;;;;37.08;22.70;;;;;;;7.54;88.87;102448.81;5011611;28;20472;-75
2023/04/09 06:22:44;;;;;;;37.67;23.52;;;;;;;7.61;88.38;102452.41;5011893;28;20047;-75
2023/04/09 06:25:09;;;;;;;38.70;23.33;;;;;;;7.66;89.40;102453.34;5010240;28;20415;-75
2023/04/09 06:27:35;;;;;;;38.03;22.90;;;;;;;7.59;89.14;102438.34;5010574;28;20113;-75
2023/04/09 06:30:00;;;;;;;38.60;23.15;;;;;;;7.72;87.69;102452.59;5010396;28;20057;-76
2023/04/09 06:32:26;;;;;;;35.70;22.85;;;;;;;7.76;87.96;102454.41;5010637;28;20033;-76
2023/04/09 06:34:51;;;;;;;38.65;24.50;;;;;;;7.79;88.38;102459.75;4993298;28;20045;-76
2023/04/09 06:37:17;;;;;;;39.67;24.45;;;;;;;7.82;88.10;102457.16;5011460;28;20460;-76
2023/04/09 06:39:42;;;;;;;38.78;23.00;;;;;;;7.85;88.18;102465.09;5011441;28;20041;-76
2023/04/09 06:42:08;;;;;;;37.40;24.17;;;;;;;7.86;88.02;102464.25;5010263;28;20385;-76
2023/04/09 06:44:45;;;;;;;36.90;21.92;;;;;;;7.86;87.95;102456.34;5010023;28;20428;-76
2023/04/09 06:47:14;;;;;;;33.90;22.48;;;;;;;7.94;87.56;102469.63;5011516;28;20393;-76
2023/04/09 06:49:39;;;;;;;37.65;23.77;;;;;;;7.96;87.48;102465.25;5011308;28;20029;-76
2023/04/09 06:52:06;;;;;;;37.40;23.63;;;;;;;8.00;87.59;102464.44;5010034;28;20164;-76
2023/04/09 06:54:31;;;;;;;35.40;22.98;;;;;;;8.04;87.28;102457.47;5010487;28;20437;-76
2023/04/09 06:56:57;;;;;;;41.30;23.58;;;;;;;8.13;87.48;102468.13;5000352;28;20139;-77
2023/04/09 06:59:22;;;;;;;42.58;25.98;;;;;;;8.15;87.31;102463.78;5011586;28;20469;-76
2023/04/09 07:01:48;;;;;;;39.28;23.13;;;;;;;8.21;86.54;102469.16;5010184;28;20525;-76
2023/04/09 07:04:13;;;;;;;40.72;24.15;;;;;;;8.27;87.27;102476.25;5011262;28;20046;-77
2023/04/09 07:06:39;;;;;;;39.80;24.48;;;;;;;8.34;86.82;102472.84;5010184;28;20041;-77
2023/04/09 07:09:05;;;;;;;37.85;24.05;;;;;;;8.37;85.94;102467.59;5011421;28;20030;-77
2023/04/09 07:11:31;;;;;;;35.20;23.25;;;;;;;8.43;85.98;102464.19;5013516;28;20057;-77
2023/04/09 07:13:58;;;;;;;42.25;25.25;;;;;;;8.48;86.30;102467.75;4993728;28;20034;-77
2023/04/09 07:16:24;;;;;;;39.10;24.40;;;;;;;8.55;85.57;102469.63;5004067;28;20496;-75
2023/04/09 07:18:49;;;;;;;39.00;24.70;;;;;;;8.60;86.05;102474.09;5013243;28;20045;-75
2023/04/09 07:21:15;;;;;;;40.85;25.20;;;;;;;8.59;85.42;102463.50;5014682;28;20030;-75
2023/04/09 07:23:41;;;;;;;39.85;25.33;;;;;;;8.70;85.26;102480.34;5013425;28;20037;-75
2023/04/09 07:26:07;;;;;;;40.20;26.05;;;;;;;8.75;85.04;102476.06;5013229;28;20445;-75
2023/04/09 07:28:32;;;;;;;42.50;25.15;;;;;;;8.79;84.97;102472.56;5013564;28;20113;-75
2023/04/09 07:31:03;;;;;;;35.92;24.77;;;;;;;8.87;84.24;102472.63;5014114;28;20030;-75
2023/04/09 07:33:29;;;;;;;36.37;25.40;;;;;;;8.92;84.83;102465.66;5013264;28;20038;-75
2023/04/09 07:35:55;;;;;;;42.58;25.25;;;;;;;9.05;84.15;102471.97;5013767;28;20285;-75
2023/04/09 07:38:20;;;;;;;38.08;24.52;;;;;;;9.13;83.79;102472.94;5013080;28;20121;-75
2023/04/09 07:40:46;;;;;;;40.55;26.80;;;;;;;9.22;83.59;102469.47;5013024;28;20036;-76
2023/04/09 07:43:11;;;;;;;39.63;24.65;;;;;;;9.31;83.75;102476.63;5008685;28;20141;-76
2023/04/09 07:45:37;;;;;;;39.13;25.33;;;;;;;9.37;83.60;102469.66;5010225;28;20439;-75
2023/04/09 07:48:02;;;;;;;41.05;25.85;;;;;;;9.47;82.98;102471.50;4990071;28;20093;-75
2023/04/09 07:50:28;;;;;;;39.45;25.10;;;;;;;9.55;81.76;102475.97;5005110;28;20047;-76
2023/04/09 07:52:54;;;;;;;37.90;24.27;;;;;;;9.55;82.01;102465.41;5018530;28;20061;-76
2023/04/09 07:55:19;;;;;;;43.08;26.17;;;;;;;9.65;82.22;102473.41;5022817;28;20504;-75
2023/04/09 07:57:45;;;;;;;40.40;27.13;;;;;;;9.77;82.24;102466.47;5006459;28;20452;-75
2023/04/09 08:00:11;;;;;;;36.85;24.65;;;;;;;9.86;81.63;102469.16;5013844;28;20026;-75
2023/04/09 08:02:42;;;;;;;40.90;25.98;;;;;;;9.86;80.92;102470.03;5011032;28;20060;-75
2023/04/09 08:05:08;;;;;;;38.28;25.60;;;;;;;9.81;80.82;102474.41;5012238;28;20030;-75
2023/04/09 08:07:34;;;;;;;38.20;25.67;;;;;;;9.74;81.11;102472.56;5013888;28;20084;-75
2023/04/09 08:09:59;;;;;;;37.55;24.65;;;;;;;9.69;81.51;102466.38;4992346;28;20050;-75
2023/04/09 08:12:25;;;;;;;39.17;25.15;;;;;;;9.71;81.61;102475.22;5012505;28;20021;-76
2023/04/09 08:14:51;;;;;;;38.58;25.88;;;;;;;9.69;82.12;102474.31;5012390;28;20042;-76
2023/04/09 08:17:16;;;;;;;35.92;24.90;;;;;;;9.73;82.86;102478.75;5013909;28;20038;-76
2023/04/09 08:19:42;;;;;;;40.35;26.55;;;;;;;9.86;82.95;102479.72;5013661;28;20117;-75
2023/04/09 08:22:07;;;;;;;37.72;25.50;;;;;;;10.07;81.18;102477.25;5013715;28;20080;-76
2023/04/09 08:24:33;;;;;;;38.58;26.10;;;;;;;10.23;79.98;102477.31;5012054;28;20030;-76
2023/04/09 08:26:58;;;;;;;37.90;26.38;;;;;;;10.37;80.53;102477.44;5013592;28;20503;-75
2023/04/09 08:29:26;;;;;;;38.78;26.65;;;;;;;10.51;80.32;102475.75;5011872;28;20092;-75
2023/04/09 08:31:51;;;;;;;33.15;24.77;;;;;;;10.58;78.71;102477.53;5013299;28;20385;-75
2023/04/09 08:34:19;;;;;;;35.13;25.17;;;;;;;10.62;79.34;102473.16;5011753;28;20046;-75
2023/04/09 08:36:46;;;;;;;39.42;25.23;;;;;;;10.80;79.99;102467.03;5010984;28;20083;-74
2023/04/09 08:39:11;;;;;;;40.70;26.05;;;;;;;10.95;79.84;102469.69;5012970;28;20481;-75
2023/04/09 08:41:42;;;;;;;34.92;24.13;;;;;;;11.01;77.01;102459.13;4993045;28;20072;-74
2023/04/09 08:44:08;;;;;;;;;;;;;;;11.10;79.58;102459.16;5028696;28;20052;-74
2023/04/09 08:46:35;;;;;;;36.13;25.63;;;;;;;11.14;77.83;102460.03;5028556;28;20438;-83
2023/04/09 08:49:01;;;;;;;39.42;26.63;;;;;;;11.15;77.76;102460.06;5028521;28;20053;-82
2023/04/09 08:51:27;;;;;;;36.55;25.77;;;;;;;11.18;78.13;102460.06;5013854;28;20022;-82
2023/04/09 08:53:57;;;;;;;39.60;27.77;;;;;;;11.21;77.41;102451.22;5013516;28;20396;-82
2023/04/09 08:56:24;;;;;;;36.13;26.45;;;;;;;11.18;76.97;102459.16;5013369;28;20030;-82
2023/04/09 08:58:49;;;;;;;40.28;27.90;;;;;;;11.18;77.83;102459.16;5011644;28;20072;-82
2023/04/09 09:01:29;;;;;;;38.38;26.65;;;;;;;11.21;77.98;102459.16;5013038;28;20041;-82
2023/04/09 09:04:03;;;;;;;40.22;26.13;;;;;;;11.28;77.95;102454.78;5011624;28;20054;-82
2023/04/09 09:06:31;;;;;;;40.75;27.80;;;;;;;11.46;78.06;102453.88;5011305;28;20201;-82
2023/04/09 09:09:11;;;;;;;42.70;26.35;;;;;;;11.77;77.64;102447.69;5013028;28;20101;-82
2023/04/09 09:11:36;;;;;;;39.22;27.20;;;;;;;12.13;76.50;102458.25;5011335;28;20037;-82
2023/04/09 09:14:07;;;;;;;45.05;28.52;;;;;;;12.34;74.56;102455.56;5012874;28;20026;-82
2023/04/09 09:16:34;;;;;;;41.05;27.30;;;;;;;12.38;72.80;102451.09;5012587;28;20041;-82
2023/04/09 09:19:01;;;;;;;44.28;28.95;;;;;;;12.40;73.71;102457.31;5012774;28;20025;-82
2023/04/09 09:21:28;;;;;;;37.33;27.77;;;;;;;12.48;72.43;102443.06;5011365;28;20406;-82
2023/04/09 09:23:55;;;;;;;38.83;28.45;;;;;;;12.44;72.34;102457.28;4997564;28;20033;-82
2023/04/09 09:26:26;;;;;;;41.28;27.60;;;;;;;12.39;72.49;102450.22;5012742;28;20446;-82
2023/04/09 09:28:52;;;;;;;;;;;;;;;12.41;75.44;102453.75;5011714;28;20496;-82
2023/04/09 09:31:19;;;;;;;39.60;27.20;;;;;;;12.34;73.02;102444.94;5011130;28;19931;-82
2023/04/09 09:33:47;;;;;;;38.88;28.52;;;;;;;12.29;72.14;102449.38;5027668;28;20075;-82
2023/04/09 09:36:13;;;;;;;41.25;27.67;;;;;;;12.29;73.14;102446.72;5012405;28;20018;-82
2023/04/09 09:38:55;;;;;;;38.78;28.50;;;;;;;12.24;73.75;102444.06;5012294;28;20511;-80
2023/04/09 09:41:22;;;;;;;38.80;28.80;;;;;;;12.33;72.85;102443.16;5010416;28;20040;-82
2023/04/09 09:43:48;;;;;;;37.08;26.23;;;;;;;12.59;72.10;102442.19;5012324;28;20080;-82
2023/04/09 09:46:14;;;;;;;40.08;27.48;;;;;;;12.90;71.67;102438.44;5011499;28;20038;-82
2023/04/09 09:48:41;;;;;;;41.15;27.98;;;;;;;13.07;69.94;102430.34;5012263;28;20116;-81
2023/04/09 09:51:11;;;;;;;40.78;28.67;;;;;;;13.24;69.96;102432.03;5012336;28;20038;-82
2023/04/09 09:53:38;;;;;;;41.55;27.98;;;;;;;13.37;69.14;102424.84;5012545;28;20557;-82
2023/04/09 09:56:05;;;;;;;38.45;27.73;;;;;;;13.45;70.03;102429.22;5012281;28;20481;-82
2023/04/09 09:58:39;;;;;;;37.47;26.00;;;;;;;13.60;68.19;102430.88;5010773;28;20053;-82
2023/04/09 10:01:11;;;;;;;36.83;26.08;;;;;;;13.66;68.01;102421.94;5012113;28;20052;-81
2023/04/09 10:03:39;;;;;;;42.00;24.48;;;;;;;13.75;68.12;102421.88;5010496;28;20034;-82
2023/04/09 10:06:06;;;;;;;35.67;27.17;;;;;;;13.74;68.64;102412.97;5012221;28;20033;-82
2023/04/09 10:08:33;;;;;;;38.95;26.55;;;;;;;13.84;66.16;102418.22;5010586;28;20034;-82
2023/04/09 10:11:03;;;;;;;35.25;25.77;;;;;;;14.03;67.91;102410.91;5010696;28;20129;-82
2023/04/09 10:13:34;;;;;;;39.42;25.95;;;;;;;14.21;67.61;102408.03;5011864;28;20072;-82
2023/04/09 10:16:00;;;;;;;33.58;24.27;;;;;;;14.27;65.39;102401.72;5012339;28;20046;-82
2023/04/09 10:18:27;;;;;;;32.20;23.75;;;;;;;14.33;64.58;102401.66;5011940;28;20058;-82
2023/04/09 10:21:16;;;;;;;36.40;24.02;;;;;;;14.38;66.18;102399.81;5011812;28;20034;-82
2023/04/09 10:23:43;;;;;;;32.15;22.67;;;;;;;14.51;64.61;102398.75;5010635;28;20081;-82
2023/04/09 10:26:10;;;;;;;29.73;21.08;;;;;;;14.62;64.53;102385.31;5012022;28;20020;-81
2023/04/09 10:28:40;;;;;;;31.25;21.58;;;;;;;14.95;64.23;102383.06;5011993;28;20389;-82
2023/04/09 10:31:07;;;;;;;32.53;24.57;;;;;;;15.21;61.75;102383.53;5011854;28;20042;-82
2023/04/09 10:33:36;;;;;;;29.20;22.23;;;;;;;15.26;60.49;102383.47;5011901;28;20393;-82
2023/04/09 10:36:09;;;;;;;28.50;21.73;;;;;;;15.33;59.23;102386.88;5011050;28;20068;-82
2023/04/09 10:38:45;;;;;;;31.25;22.95;;;;;;;15.59;61.14;102375.75;5011749;28;20022;-82
2023/04/09 10:41:28;;;;;;;29.35;20.50;;;;;;;15.66;60.79;102374.72;5007963;28;20049;-82
2023/04/09 10:43:54;;;;;;;27.00;20.33;;;;;;;15.44;59.17;102379.59;5005466;28;20042;-82
2023/04/09 10:46:33;;;;;;;29.73;21.52;;;;;;;15.26;61.17;102375.44;5015193;28;20141;-82
2023/04/09 10:49:14;;;;;;;33.25;22.33;;;;;;;14.95;61.54;102369.72;5015198;28;20129;-82
2023/04/09 10:51:40;;;;;;;;;;;;;;;14.91;64.29;102368.91;5015805;28;20034;-82
2023/04/09 10:54:31;;;;;;;26.25;19.60;;;;;;;14.83;62.25;102363.66;5014356;28;20387;-82
2023/04/09 10:57:06;;;;;;;28.08;20.60;;;;;;;14.69;61.21;102368.34;5015287;28;20426;-81
2023/04/09 10:59:36;;;;;;;26.95;20.48;;;;;;;14.67;60.60;102359.47;5015683;28;20044;-82
2023/04/09 11:02:05;;;;;;;30.00;20.27;;;;;;;14.63;61.27;102355.09;5015410;28;20354;-81
2023/04/09 11:04:39;;;;;;;26.05;20.42;;;;;;;14.62;60.63;102356.88;5015104;28;20056;-83
2023/04/09 11:07:05;;;;;;;28.48;19.02;;;;;;;14.62;59.58;102353.34;5015365;28;20029;-81
2023/04/09 11:09:34;;;;;;;25.52;19.17;;;;;;;14.59;59.77;102356.06;5014958;28;20038;-82
2023/04/09 11:12:00;;;;;;;28.58;19.95;;;;;;;14.68;60.11;102352.34;5013966;28;20042;-82
2023/04/09 11:14:26;;;;;;;24.55;19.10;;;;;;;14.90;58.61;102345.78;5015294;28;20032;-82
2023/04/09 11:16:52;;;;;;;26.00;18.27;;;;;;;15.55;61.26;102342.00;5015091;28;20129;-82
2023/04/09 11:19:19;;;;;;;25.02;18.33;;;;;;;16.11;60.03;102340.91;5014995;28;20457;-81
2023/04/09 11:21:46;;;;;;;19.05;14.75;;;;;;;16.37;54.83;102339.47;5013735;28;20076;-82